createdAt,value
2019-01-27T00:03:23.655Z,13.16
2019-01-27T00:08:31.609Z,13.03
2019-01-27T00:13:39.779Z,13.36
2019-01-27T00:18:47.898Z,12.90
2019-01-27T00:23:55.991Z,13.37
2019-01-27T00:29:04.092Z,13.83
2019-01-27T00:34:11.915Z,13.33
2019-01-27T00:39:19.856Z,13.73
2019-01-27T00:44:27.895Z,13.45
2019-01-27T00:49:35.933Z,13.09
2019-01-27T00:54:43.717Z,12.97
2019-01-27T00:59:51.698Z,13.52
2019-01-27T01:04:59.474Z,13.48
2019-01-27T01:10:08.802Z,13.58
2019-01-27T01:15:17.840Z,14.00
2019-01-27T01:20:26.935Z,14.94
2019-01-27T01:25:34.958Z,15.68
2019-01-27T01:30:42.734Z,16.57
2019-01-27T01:35:50.631Z,17.30
2019-01-27T01:40:58.810Z,19.35
2019-01-27T01:46:06.726Z,19.02
2019-01-27T01:51:14.694Z,19.28
2019-01-27T01:56:22.665Z,20.38
2019-01-27T02:01:30.631Z,19.90
2019-01-27T02:06:38.920Z,20.48
2019-01-27T02:11:46.759Z,20.61
2019-01-27T02:16:54.851Z,20.59
2019-01-27T02:22:02.914Z,19.84
2019-01-27T02:27:10.821Z,20.10
2019-01-27T02:32:18.582Z,19.33
2019-01-27T02:37:26.326Z,18.79
2019-01-27T02:42:34.889Z,18.20
2019-01-27T02:47:42.889Z,18.32
2019-01-27T02:52:51.780Z,17.84
2019-01-27T02:57:59.703Z,16.71
2019-01-27T03:03:07.443Z,16.53
2019-01-27T03:08:16.240Z,15.43
2019-01-27T03:13:24.109Z,15.75
2019-01-27T03:18:32.442Z,14.80
2019-01-27T03:23:40.423Z,14.16
2019-01-27T03:28:48.299Z,13.51
2019-01-27T03:33:56.323Z,13.31
2019-01-27T03:39:04.103Z,12.62
2019-01-27T03:44:11.972Z,12.44
2019-01-27T03:49:19.906Z,12.46
2019-01-27T03:54:28.279Z,12.31
2019-01-27T03:59:36.182Z,11.49
2019-01-27T04:04:44.222Z,11.71
2019-01-27T04:09:52.342Z,11.76
2019-01-27T04:15:00.103Z,11.35
2019-01-27T04:20:09.896Z,11.67
2019-01-27T04:25:17.673Z,11.76
2019-01-27T04:30:27.095Z,11.50
2019-01-27T04:35:34.791Z,11.61
2019-01-27T04:40:44.806Z,11.10
2019-01-27T04:45:42.578Z,11.85
2019-01-27T04:50:54.938Z,11.63
2019-01-27T04:55:52.674Z,11.35
2019-01-27T05:01:00.531Z,10.89
2019-01-27T05:06:08.239Z,10.90
2019-01-27T05:11:27.494Z,11.29
2019-01-27T05:16:25.419Z,10.99
2019-01-27T05:21:34.391Z,11.30
2019-01-27T05:26:46.463Z,10.79
2019-01-27T05:31:44.332Z,11.20
2019-01-27T05:36:58.175Z,11.22
2019-01-27T05:41:56.433Z,11.21
2019-01-27T05:47:04.162Z,11.16
2019-01-27T05:52:12.417Z,11.34
2019-01-27T05:57:20.345Z,11.74
2019-01-27T06:02:28.189Z,16.76
2019-01-27T06:07:36.007Z,11.27
2019-01-27T06:12:43.688Z,11.18
2019-01-27T06:17:51.387Z,11.45
2019-01-27T06:22:59.371Z,11.61
2019-01-27T06:28:07.238Z,11.39
2019-01-27T06:33:15.651Z,11.45
2019-01-27T06:38:23.638Z,11.75
2019-01-27T06:43:31.950Z,11.34
2019-01-27T06:48:39.691Z,10.92
2019-01-27T06:53:47.509Z,11.61
2019-01-27T06:58:55.252Z,11.44
2019-01-27T07:04:03.221Z,11.57
2019-01-27T07:09:12.085Z,11.53
2019-01-27T07:14:20.925Z,11.79
2019-01-27T07:19:28.786Z,11.43
2019-01-27T07:24:37.901Z,12.32
2019-01-27T07:29:45.608Z,12.19
2019-01-27T07:34:53.781Z,11.64
2019-01-27T07:40:01.616Z,12.02
2019-01-27T07:45:09.459Z,12.05
2019-01-27T07:50:17.632Z,12.19
2019-01-27T07:55:25.627Z,12.46
2019-01-27T08:00:33.780Z,12.16
2019-01-27T08:05:42.810Z,12.12
2019-01-27T08:10:50.478Z,11.73
2019-01-27T08:15:58.261Z,11.68
2019-01-27T08:21:05.882Z,11.51
2019-01-27T08:26:13.813Z,11.76
2019-01-27T08:31:21.494Z,11.12
2019-01-27T08:36:29.422Z,11.03
2019-01-27T08:41:37.070Z,11.25
2019-01-27T08:46:44.870Z,11.26
2019-01-27T08:51:52.656Z,11.01
2019-01-27T08:57:00.601Z,10.25
2019-01-27T09:02:08.375Z,10.71
2019-01-27T09:07:16.177Z,10.53
2019-01-27T09:12:23.893Z,9.61
2019-01-27T09:17:32.578Z,9.93
2019-01-27T09:22:40.350Z,14.71
2019-01-27T09:27:48.267Z,10.07
2019-01-27T09:32:56.041Z,9.78
2019-01-27T09:38:03.894Z,9.92
2019-01-27T09:43:11.529Z,9.61
2019-01-27T09:48:19.102Z,9.69
2019-01-27T09:53:26.830Z,9.62
2019-01-27T09:58:34.545Z,9.55
2019-01-27T10:03:42.367Z,9.85
2019-01-27T10:08:52.993Z,9.97
2019-01-27T10:13:50.863Z,9.56
2019-01-27T10:19:04.775Z,9.82
2019-01-27T10:24:02.494Z,9.90
2019-01-27T10:29:10.622Z,9.48
2019-01-27T10:34:17.374Z,9.87
2019-01-27T10:39:25.094Z,10.24
2019-01-27T10:44:32.862Z,9.83
2019-01-27T10:49:43.314Z,10.41
2019-01-27T10:54:42.793Z,10.71
2019-01-27T10:59:50.497Z,9.99
2019-01-27T11:04:58.210Z,9.23
2019-01-27T11:10:07.245Z,8.73
2019-01-27T11:15:14.817Z,8.52
2019-01-27T11:20:22.583Z,8.88
2019-01-27T11:25:30.327Z,8.43
2019-01-27T11:30:38.269Z,8.30
2019-01-27T11:35:45.945Z,7.52
2019-01-27T11:40:53.647Z,7.28
2019-01-27T11:46:01.486Z,6.94
2019-01-27T11:51:09.122Z,6.63
2019-01-27T11:56:16.778Z,6.74
2019-01-27T12:01:24.509Z,6.39
2019-01-27T12:06:32.286Z,6.51
2019-01-27T12:11:40.171Z,6.55
2019-01-27T12:16:47.797Z,6.30
2019-01-27T12:21:55.609Z,6.11
2019-01-27T12:27:03.285Z,6.26
2019-01-27T12:32:11.513Z,6.46
2019-01-27T12:37:19.256Z,6.02
2019-01-27T12:42:27.950Z,5.77
2019-01-27T12:47:35.730Z,5.26
2019-01-27T12:52:43.525Z,4.69
2019-01-27T12:57:51.810Z,5.06
2019-01-27T13:02:58.548Z,4.69
2019-01-27T13:08:06.190Z,4.70
2019-01-27T13:13:13.810Z,4.24
2019-01-27T13:18:22.589Z,4.34
2019-01-27T13:23:30.274Z,4.27
2019-01-27T13:28:38.213Z,4.04
2019-01-27T13:33:46.153Z,3.78
2019-01-27T13:38:53.881Z,2.59
2019-01-27T13:44:01.529Z,3.09
2019-01-27T13:49:09.234Z,2.98
2019-01-27T13:54:17.061Z,3.28
2019-01-27T13:59:24.793Z,3.74
2019-01-27T14:04:32.835Z,4.00
2019-01-27T14:09:40.534Z,3.87
2019-01-27T14:14:48.337Z,3.85
2019-01-27T14:19:56.041Z,3.48
2019-01-27T14:25:03.849Z,3.65
2019-01-27T14:30:11.561Z,3.71
2019-01-27T14:35:19.177Z,3.76
2019-01-27T14:40:26.878Z,3.69
2019-01-27T14:45:34.761Z,3.49
2019-01-27T14:50:42.485Z,3.85
2019-01-27T14:55:50.277Z,3.55
2019-01-27T15:00:58.023Z,3.58
2019-01-27T15:06:05.916Z,3.71
2019-01-27T15:11:13.741Z,3.86
2019-01-27T15:16:21.976Z,3.83
2019-01-27T15:21:29.729Z,3.66
2019-01-27T15:26:37.583Z,3.80
2019-01-27T15:31:45.444Z,3.79
2019-01-27T15:36:53.607Z,6.07
2019-01-27T15:42:01.597Z,4.35
2019-01-27T15:47:09.381Z,4.29
2019-01-27T15:52:17.123Z,4.23
2019-01-27T15:57:25.026Z,4.16
2019-01-27T16:02:32.730Z,4.44
2019-01-27T16:07:40.397Z,6.87
2019-01-27T16:12:48.119Z,4.70
2019-01-27T16:17:56.659Z,4.86
2019-01-27T16:23:04.313Z,3.26
2019-01-27T16:28:12.202Z,2.78
2019-01-27T16:33:19.936Z,2.75
2019-01-27T16:38:27.655Z,3.09
2019-01-27T16:43:36.634Z,2.72
2019-01-27T16:48:44.416Z,2.57
2019-01-27T16:53:52.186Z,2.95
2019-01-27T16:58:59.842Z,2.28
2019-01-27T17:04:07.554Z,2.56
2019-01-27T17:09:15.442Z,3.15
2019-01-27T17:14:23.598Z,2.77
2019-01-27T17:19:31.305Z,2.44
2019-01-27T17:24:38.951Z,3.40
2019-01-27T17:29:46.705Z,3.44
2019-01-27T17:34:55.249Z,4.69
2019-01-27T17:40:03.127Z,4.48
2019-01-27T17:45:13.332Z,8.03
2019-01-27T17:50:11.328Z,7.45
2019-01-27T17:55:19.376Z,3.38
2019-01-27T18:00:27.652Z,3.24
2019-01-27T18:05:35.368Z,3.70
2019-01-27T18:10:43.857Z,4.88
2019-01-27T18:15:51.526Z,6.87
2019-01-27T18:20:59.342Z,4.20
2019-01-27T18:26:07.011Z,3.07
2019-01-27T18:31:14.819Z,4.24
2019-01-27T18:36:22.608Z,3.68
2019-01-27T18:41:30.706Z,3.21
2019-01-27T18:46:38.630Z,2.84
2019-01-27T18:51:46.400Z,3.18
2019-01-27T18:56:54.318Z,2.92
2019-01-27T19:02:02.073Z,2.80
2019-01-27T19:07:12.214Z,2.97
2019-01-27T19:12:10.015Z,3.46
2019-01-27T19:17:17.883Z,3.94
2019-01-27T19:22:26.178Z,3.11
2019-01-27T19:27:34.171Z,3.14
2019-01-27T19:32:41.945Z,3.07
2019-01-27T19:37:49.647Z,3.16
2019-01-27T19:42:57.822Z,2.83
2019-01-27T19:48:06.146Z,2.38
2019-01-27T19:53:14.983Z,2.56
2019-01-27T19:58:22.918Z,2.63
2019-01-27T20:03:31.307Z,2.67
2019-01-27T20:08:39.667Z,2.60
2019-01-27T20:13:47.970Z,2.26
2019-01-27T20:18:55.799Z,2.39
2019-01-27T20:24:04.342Z,2.52
2019-01-27T20:29:12.089Z,2.53
2019-01-27T20:34:20.835Z,2.64
2019-01-27T20:39:31.313Z,2.58
2019-01-27T20:44:30.950Z,2.68
2019-01-27T20:49:38.677Z,3.89
2019-01-27T20:54:46.691Z,2.59
2019-01-27T20:59:54.319Z,2.61
2019-01-27T21:05:02.596Z,2.41
2019-01-27T21:10:12.455Z,2.70
2019-01-27T21:15:17.933Z,2.58
2019-01-27T21:20:26.579Z,2.60
2019-01-27T21:25:34.713Z,2.64
2019-01-27T21:30:43.617Z,2.75
2019-01-27T21:35:51.454Z,2.71
2019-01-27T21:40:59.130Z,2.40
2019-01-27T21:46:07.003Z,2.38
2019-01-27T21:51:14.693Z,2.47
2019-01-27T21:56:22.305Z,2.83
2019-01-27T22:01:30.009Z,2.93
2019-01-27T22:06:39.273Z,3.06
2019-01-27T22:11:47.124Z,3.06
2019-01-27T22:16:54.945Z,2.49
2019-01-27T22:22:02.896Z,2.59
2019-01-27T22:27:10.889Z,2.86
2019-01-27T22:32:18.597Z,3.09
2019-01-27T22:37:26.545Z,3.00
2019-01-27T22:42:34.142Z,3.68
2019-01-27T22:47:43.068Z,3.44
2019-01-27T22:52:51.145Z,3.41
2019-01-27T22:57:58.969Z,3.48
2019-01-27T23:03:06.601Z,4.36
2019-01-27T23:08:14.229Z,3.82
2019-01-27T23:13:22.040Z,4.20
2019-01-27T23:18:30.089Z,3.71
2019-01-27T23:23:37.872Z,4.18
2019-01-27T23:28:45.731Z,4.44
2019-01-27T23:33:54.642Z,4.50
2019-01-27T23:39:02.466Z,4.63
2019-01-27T23:44:10.296Z,4.89
2019-01-27T23:49:19.057Z,5.22
2019-01-27T23:54:26.672Z,5.60
2019-01-27T23:59:34.501Z,5.83
